createdAt,value
2019-06-08T00:00:08.790Z,82.25
2019-06-08T00:02:47.093Z,82.09
2019-06-08T00:05:24.886Z,81.78
2019-06-08T00:08:02.127Z,81.37
2019-06-08T00:10:40.591Z,80.72
2019-06-08T00:13:19.731Z,80.72
2019-06-08T00:15:56.967Z,80.65
2019-06-08T00:18:34.699Z,80.37
2019-06-08T00:21:13.476Z,79.92
2019-06-08T00:23:51.501Z,78.85
2019-06-08T00:26:29.282Z,77.98
2019-06-08T00:29:06.834Z,77.55
2019-06-08T00:31:44.941Z,76.83
2019-06-08T00:34:22.715Z,76.03
2019-06-08T00:37:00.049Z,75.84
2019-06-08T00:39:37.602Z,76.21
2019-06-08T00:42:17.095Z,76.39
2019-06-08T00:44:54.471Z,76.62
2019-06-08T00:47:47.086Z,75.61
2019-06-08T00:50:11.581Z,74.35
2019-06-08T00:52:49.900Z,72.98
2019-06-08T00:55:29.770Z,73.70
2019-06-08T00:58:07.526Z,73.92
2019-06-08T01:00:44.649Z,74.71
2019-06-08T01:03:23.928Z,74.87
2019-06-08T01:06:01.358Z,75.26
2019-06-08T01:08:39.510Z,74.97
2019-06-08T01:11:18.638Z,74.79
2019-06-08T01:13:56.994Z,75.37
2019-06-08T01:16:34.514Z,75.42
2019-06-08T01:19:13.501Z,75.87
2019-06-08T01:21:50.720Z,76.23
2019-06-08T01:24:29.910Z,75.78
2019-06-08T01:27:08.490Z,75.99
2019-06-08T01:29:46.495Z,76.35
2019-06-08T01:32:24.300Z,75.67
2019-06-08T01:35:02.249Z,75.43
2019-06-08T01:37:41.525Z,75.82
2019-06-08T01:40:18.953Z,76.74
2019-06-08T01:42:56.240Z,76.60
2019-06-08T01:45:34.776Z,76.27
2019-06-08T01:48:20.165Z,76.28
2019-06-08T01:50:51.999Z,75.78
2019-06-08T01:53:31.058Z,75.44
2019-06-08T01:56:11.056Z,75.38
2019-06-08T01:58:49.905Z,73.79
2019-06-08T02:01:27.825Z,73.21
2019-06-08T02:04:05.356Z,73.03
2019-06-08T02:06:43.231Z,73.69
2019-06-08T02:09:20.793Z,73.15
2019-06-08T02:11:58.855Z,72.54
2019-06-08T02:14:36.524Z,73.17
2019-06-08T02:17:15.157Z,72.92
2019-06-08T02:19:52.162Z,73.09
2019-06-08T02:22:29.444Z,73.01
2019-06-08T02:25:07.171Z,72.25
2019-06-08T02:27:45.273Z,71.62
2019-06-08T02:30:24.031Z,71.30
2019-06-08T02:33:02.408Z,70.08
2019-06-08T02:35:41.596Z,69.21
2019-06-08T02:38:19.574Z,68.85
2019-06-08T02:40:56.866Z,68.64
2019-06-08T02:43:35.684Z,69.23
2019-06-08T02:46:14.027Z,68.52
2019-06-08T02:49:03.126Z,67.38
2019-06-08T02:51:31.238Z,66.49
2019-06-08T02:54:08.826Z,65.75
2019-06-08T02:56:45.840Z,66.53
2019-06-08T02:59:25.341Z,64.26
2019-06-08T03:02:04.287Z,63.02
2019-06-08T03:04:42.857Z,63.05
2019-06-08T03:07:23.107Z,62.11
2019-06-08T03:10:01.891Z,61.99
2019-06-08T03:12:42.562Z,61.29
2019-06-08T03:15:22.713Z,59.51
2019-06-08T03:17:59.874Z,59.41
2019-06-08T03:20:39.992Z,62.19
2019-06-08T03:23:17.205Z,62.60
2019-06-08T03:25:54.704Z,62.54
2019-06-08T03:28:32.611Z,62.40
2019-06-08T03:31:10.874Z,61.86
2019-06-08T03:33:54.964Z,62.23
2019-06-08T03:36:28.442Z,61.18
2019-06-08T03:39:06.968Z,60.87
2019-06-08T03:41:45.365Z,60.95
2019-06-08T03:44:23.062Z,61.06
2019-06-08T03:47:00.669Z,60.96
2019-06-08T03:49:50.638Z,61.27
2019-06-08T03:52:18.288Z,60.00
2019-06-08T03:54:55.661Z,61.10
2019-06-08T03:57:32.930Z,61.89
2019-06-08T04:00:13.496Z,62.67
2019-06-08T04:02:51.129Z,62.64
2019-06-08T04:05:30.249Z,62.66
2019-06-08T04:08:07.871Z,62.89
2019-06-08T04:10:46.747Z,62.96
2019-06-08T04:13:24.720Z,62.84
2019-06-08T04:16:02.129Z,62.55
2019-06-08T04:18:40.703Z,62.63
2019-06-08T04:21:19.489Z,63.02
2019-06-08T04:23:57.614Z,62.89
2019-06-08T04:26:34.823Z,62.54
2019-06-08T04:29:13.667Z,62.45
2019-06-08T04:31:51.246Z,61.56
2019-06-08T04:34:29.841Z,61.63
2019-06-08T04:37:08.254Z,61.01
2019-06-08T04:39:47.014Z,61.40
2019-06-08T04:42:23.851Z,61.25
2019-06-08T04:45:01.483Z,60.44
2019-06-08T04:47:41.065Z,60.38
2019-06-08T04:50:23.391Z,59.49
2019-06-08T04:52:57.449Z,60.67
2019-06-08T04:55:35.439Z,61.62
2019-06-08T04:58:12.883Z,59.38
2019-06-08T05:00:51.135Z,58.87
2019-06-08T05:03:28.549Z,57.61
2019-06-08T05:06:06.832Z,57.75
2019-06-08T05:08:45.391Z,57.97
2019-06-08T05:11:22.787Z,57.06
2019-06-08T05:13:59.888Z,58.54
2019-06-08T05:16:39.066Z,57.32
2019-06-08T05:19:16.681Z,58.21
2019-06-08T05:21:54.868Z,58.87
2019-06-08T05:24:32.343Z,57.18
2019-06-08T05:27:10.307Z,57.93
2019-06-08T05:29:47.740Z,58.64
2019-06-08T05:32:25.042Z,58.62
2019-06-08T05:35:02.998Z,58.24
2019-06-08T05:37:41.552Z,57.65
2019-06-08T05:40:20.302Z,58.69
2019-06-08T05:42:58.034Z,58.38
2019-06-08T05:45:35.531Z,57.27
2019-06-08T05:48:13.868Z,58.07
2019-06-08T05:51:03.026Z,57.77
2019-06-08T05:53:30.552Z,57.65
2019-06-08T05:56:08.109Z,58.28
2019-06-08T05:58:46.467Z,57.19
2019-06-08T06:01:23.510Z,57.43
2019-06-08T06:04:00.420Z,56.49
2019-06-08T06:06:37.499Z,56.01
2019-06-08T06:09:15.496Z,54.90
2019-06-08T06:11:53.829Z,53.51
2019-06-08T06:14:32.029Z,53.47
2019-06-08T06:17:10.049Z,52.33
2019-06-08T06:19:49.035Z,52.13
2019-06-08T06:22:26.699Z,53.17
2019-06-08T06:25:03.660Z,52.94
2019-06-08T06:27:41.388Z,53.40
2019-06-08T06:30:21.022Z,53.43
2019-06-08T06:32:58.275Z,52.86
2019-06-08T06:35:35.732Z,53.18
2019-06-08T06:38:13.335Z,51.78
2019-06-08T06:40:52.206Z,51.86
2019-06-08T06:43:31.071Z,52.37
2019-06-08T06:46:08.957Z,51.97
2019-06-08T06:48:46.518Z,53.30
2019-06-08T06:51:26.900Z,54.05
2019-06-08T06:54:04.302Z,52.28
2019-06-08T06:56:43.107Z,54.34
2019-06-08T06:59:20.390Z,52.88
2019-06-08T07:01:59.363Z,52.11
2019-06-08T07:04:37.267Z,52.16
2019-06-08T07:07:14.803Z,52.39
2019-06-08T07:09:52.748Z,53.12
2019-06-08T07:12:30.419Z,53.64
2019-06-08T07:15:11.179Z,54.15
2019-06-08T07:17:48.489Z,54.24
2019-06-08T07:20:26.152Z,52.90
2019-06-08T07:23:04.118Z,53.05
2019-06-08T07:25:43.549Z,54.21
2019-06-08T07:28:20.591Z,53.83
2019-06-08T07:30:58.845Z,52.22
2019-06-08T07:33:37.280Z,52.03
2019-06-08T07:36:14.371Z,52.23
2019-06-08T07:38:51.468Z,51.95
2019-06-08T07:41:28.827Z,53.30
2019-06-08T07:44:06.338Z,52.25
2019-06-08T07:46:44.647Z,53.00
2019-06-08T07:49:22.017Z,53.92
2019-06-08T07:52:09.432Z,52.51
2019-06-08T07:54:39.489Z,52.48
2019-06-08T07:57:18.077Z,53.89
2019-06-08T07:59:58.429Z,45.93
2019-06-08T08:02:36.491Z,49.84
2019-06-08T08:05:15.122Z,55.10
2019-06-08T08:07:52.528Z,54.44
2019-06-08T08:10:30.642Z,56.59
2019-06-08T08:13:08.443Z,54.60
2019-06-08T08:15:47.185Z,53.74
2019-06-08T08:18:25.509Z,54.28
2019-06-08T08:21:14.353Z,54.43
2019-06-08T08:23:41.784Z,52.33
2019-06-08T08:26:19.747Z,52.99
2019-06-08T08:29:01.320Z,53.03
2019-06-08T08:31:38.174Z,52.32
2019-06-08T08:34:18.155Z,52.55
2019-06-08T08:37:01.389Z,51.33
2019-06-08T08:39:34.736Z,51.76
2019-06-08T08:42:12.395Z,51.58
2019-06-08T08:44:51.044Z,51.80
2019-06-08T08:47:30.767Z,51.87
2019-06-08T08:50:09.438Z,51.83
2019-06-08T08:52:47.713Z,51.59
2019-06-08T08:55:25.198Z,52.53
2019-06-08T08:58:03.967Z,52.40
2019-06-08T09:00:41.601Z,52.49
2019-06-08T09:03:28.696Z,53.68
2019-06-08T09:06:01.489Z,53.00
2019-06-08T09:08:38.386Z,53.79
2019-06-08T09:11:17.452Z,54.36
2019-06-08T09:13:55.539Z,54.43
2019-06-08T09:16:33.878Z,53.96
2019-06-08T09:19:12.301Z,54.39
2019-06-08T09:21:52.481Z,54.19
2019-06-08T09:24:29.907Z,55.01
2019-06-08T09:27:08.018Z,54.40
2019-06-08T09:29:48.226Z,54.19
2019-06-08T09:32:28.081Z,53.52
2019-06-08T09:35:04.997Z,53.01
2019-06-08T09:37:42.974Z,52.58
2019-06-08T09:40:21.821Z,53.29
2019-06-08T09:43:07.428Z,52.58
2019-06-08T09:45:38.345Z,52.40
2019-06-08T09:48:18.236Z,53.01
2019-06-08T09:50:57.670Z,52.94
2019-06-08T09:53:41.087Z,53.39
2019-06-08T09:56:18.549Z,53.54
2019-06-08T09:58:57.384Z,53.77
2019-06-08T10:01:38.281Z,53.73
2019-06-08T10:04:14.917Z,53.65
2019-06-08T10:06:52.306Z,53.53
2019-06-08T10:09:29.749Z,53.42
2019-06-08T10:12:09.857Z,54.08
2019-06-08T10:14:48.990Z,53.61
2019-06-08T10:17:28.235Z,53.33
2019-06-08T10:20:09.611Z,54.01
2019-06-08T10:22:49.985Z,55.30
2019-06-08T10:25:28.670Z,55.78
2019-06-08T10:28:11.283Z,55.73
2019-06-08T10:30:45.303Z,55.56
2019-06-08T10:33:23.192Z,56.39
2019-06-08T10:36:03.124Z,56.29
2019-06-08T10:38:41.294Z,56.32
2019-06-08T10:41:21.801Z,56.57
2019-06-08T10:44:01.211Z,57.20
2019-06-08T10:46:40.609Z,57.73
2019-06-08T10:49:18.683Z,57.97
2019-06-08T10:51:58.980Z,58.04
2019-06-08T10:54:37.824Z,58.54
2019-06-08T10:57:32.913Z,59.67
2019-06-08T11:00:17.971Z,60.16
2019-06-08T11:02:49.427Z,60.49
2019-06-08T11:05:28.045Z,60.27
2019-06-08T11:08:08.656Z,60.05
2019-06-08T11:10:47.385Z,60.32
2019-06-08T11:13:23.762Z,61.08
2019-06-08T11:16:02.808Z,60.38
2019-06-08T11:18:42.061Z,60.52
2019-06-08T11:21:20.131Z,61.39
2019-06-08T11:24:07.569Z,61.11
2019-06-08T11:26:40.161Z,61.29
2019-06-08T11:29:18.763Z,61.22
2019-06-08T11:31:58.663Z,61.94
2019-06-08T11:34:37.738Z,62.11
2019-06-08T11:37:20.815Z,63.01
2019-06-08T11:39:57.565Z,63.79
2019-06-08T11:42:34.778Z,64.29
2019-06-08T11:45:13.226Z,64.19
2019-06-08T11:47:51.249Z,63.96
2019-06-08T11:50:42.233Z,63.72
2019-06-08T11:53:20.269Z,63.78
2019-06-08T11:55:58.585Z,63.66
2019-06-08T11:58:38.912Z,64.08
2019-06-08T12:01:18.734Z,63.94
2019-06-08T12:03:57.936Z,64.33
2019-06-08T12:06:37.550Z,64.32
2019-06-08T12:09:14.964Z,64.09
2019-06-08T12:11:52.367Z,64.35
2019-06-08T12:14:33.537Z,64.53
2019-06-08T12:17:13.507Z,65.21
2019-06-08T12:19:49.067Z,65.53
2019-06-08T12:22:26.368Z,65.67
2019-06-08T12:25:03.910Z,65.73
2019-06-08T12:27:41.169Z,66.05
2019-06-08T12:30:25.944Z,66.60
2019-06-08T12:33:01.070Z,66.42
2019-06-08T12:35:38.606Z,66.21
2019-06-08T12:38:18.720Z,65.85
2019-06-08T12:40:58.503Z,65.23
2019-06-08T12:43:35.256Z,65.36
2019-06-08T12:46:14.373Z,65.74
2019-06-08T12:48:52.111Z,65.23
2019-06-08T12:51:30.128Z,64.83
2019-06-08T12:54:08.446Z,64.59
2019-06-08T12:56:47.933Z,65.06
2019-06-08T12:59:25.201Z,64.86
2019-06-08T13:02:03.452Z,65.76
2019-06-08T13:04:41.878Z,66.67
2019-06-08T13:07:19.200Z,66.29
2019-06-08T13:09:58.333Z,66.26
2019-06-08T13:12:35.960Z,67.13
2019-06-08T13:15:12.986Z,67.05
2019-06-08T13:17:50.876Z,66.70
2019-06-08T13:20:28.406Z,67.04
2019-06-08T13:23:08.718Z,67.37
2019-06-08T13:25:47.859Z,67.17
2019-06-08T13:28:25.640Z,66.97
2019-06-08T13:31:03.713Z,67.59
2019-06-08T13:33:41.660Z,67.86
2019-06-08T13:36:26.068Z,67.34
2019-06-08T13:38:59.440Z,66.82
2019-06-08T13:41:38.387Z,66.19
2019-06-08T13:44:16.133Z,66.77
2019-06-08T13:46:53.356Z,66.44
2019-06-08T13:49:31.809Z,66.51
2019-06-08T13:52:09.354Z,66.78
2019-06-08T13:54:48.183Z,66.54
2019-06-08T13:57:25.739Z,66.03
2019-06-08T14:00:03.522Z,66.71
2019-06-08T14:02:41.824Z,66.87
2019-06-08T14:05:28.486Z,66.72
2019-06-08T14:08:05.054Z,66.24
2019-06-08T14:10:48.134Z,66.07
2019-06-08T14:13:29.274Z,66.00
2019-06-08T14:16:04.334Z,66.64
2019-06-08T14:18:41.794Z,66.62
2019-06-08T14:21:28.014Z,66.56
2019-06-08T14:23:58.843Z,67.25
2019-06-08T14:26:37.513Z,67.42
2019-06-08T14:29:15.271Z,67.05
2019-06-08T14:31:53.440Z,67.27
2019-06-08T14:34:31.298Z,67.13
2019-06-08T14:37:09.154Z,67.46
2019-06-08T14:39:48.593Z,67.93
2019-06-08T14:42:29.894Z,67.84
2019-06-08T14:45:07.537Z,68.39
2019-06-08T14:47:47.573Z,68.68
2019-06-08T14:50:24.525Z,68.49
2019-06-08T14:53:02.375Z,68.47
2019-06-08T14:55:39.638Z,68.72
2019-06-08T14:58:18.646Z,68.62
2019-06-08T15:00:57.970Z,67.56
2019-06-08T15:03:38.071Z,67.41
2019-06-08T15:06:14.587Z,67.90
2019-06-08T15:08:53.146Z,68.02
2019-06-08T15:11:34.899Z,67.80
2019-06-08T15:14:10.581Z,67.86
2019-06-08T15:16:49.359Z,67.79
2019-06-08T15:19:29.469Z,68.22
2019-06-08T15:22:08.774Z,67.86
2019-06-08T15:24:47.872Z,67.75
2019-06-08T15:27:26.493Z,68.42
2019-06-08T15:30:04.677Z,68.42
2019-06-08T15:32:42.522Z,67.98
2019-06-08T15:35:21.064Z,67.94
2019-06-08T15:37:58.666Z,68.55
2019-06-08T15:40:37.903Z,68.13
2019-06-08T15:43:18.287Z,67.76
2019-06-08T15:45:58.955Z,67.65
2019-06-08T15:48:34.906Z,67.63
2019-06-08T15:51:12.725Z,67.66
2019-06-08T15:53:50.441Z,67.48
2019-06-08T15:56:43.168Z,68.20
2019-06-08T15:59:08.859Z,68.85
2019-06-08T16:01:47.863Z,70.40
2019-06-08T16:04:25.926Z,71.04
2019-06-08T16:07:04.197Z,72.19
2019-06-08T16:09:42.956Z,73.33
2019-06-08T16:12:20.896Z,74.20
2019-06-08T16:14:59.468Z,74.62
2019-06-08T16:17:37.016Z,75.14
2019-06-08T16:20:15.426Z,75.58
2019-06-08T16:22:54.864Z,75.61
2019-06-08T16:25:36.725Z,75.75
2019-06-08T16:28:11.285Z,76.03
2019-06-08T16:30:49.036Z,76.12
2019-06-08T16:33:27.429Z,76.20
2019-06-08T16:36:04.362Z,76.22
2019-06-08T16:38:41.233Z,76.32
2019-06-08T16:41:18.528Z,76.23
2019-06-08T16:43:56.755Z,76.12
2019-06-08T16:46:36.576Z,76.17
2019-06-08T16:49:13.875Z,76.16
2019-06-08T16:51:50.807Z,75.82
2019-06-08T16:54:30.594Z,75.64
2019-06-08T16:57:10.798Z,75.88
2019-06-08T16:59:46.820Z,76.35
2019-06-08T17:02:24.013Z,76.53
2019-06-08T17:05:02.160Z,76.77
2019-06-08T17:07:39.965Z,76.81
2019-06-08T17:10:17.404Z,76.49
2019-06-08T17:12:54.728Z,76.30
2019-06-08T17:15:34.006Z,76.04
2019-06-08T17:18:12.476Z,75.74
2019-06-08T17:20:49.411Z,75.40
2019-06-08T17:23:27.330Z,75.13
2019-06-08T17:26:05.811Z,74.67
2019-06-08T17:28:42.763Z,74.62
2019-06-08T17:31:20.504Z,74.42
2019-06-08T17:33:58.973Z,74.54
2019-06-08T17:36:36.966Z,74.84
2019-06-08T17:39:14.493Z,75.27
2019-06-08T17:41:52.514Z,75.61
2019-06-08T17:44:30.241Z,75.61
2019-06-08T17:47:08.049Z,75.57
2019-06-08T17:49:46.756Z,75.34
2019-06-08T17:52:27.250Z,75.25
2019-06-08T17:55:03.635Z,74.98
2019-06-08T17:57:52.701Z,74.73
2019-06-08T18:00:22.358Z,74.68
2019-06-08T18:03:00.611Z,74.68
2019-06-08T18:05:41.985Z,74.68
2019-06-08T18:08:18.266Z,74.75
2019-06-08T18:10:57.446Z,74.41
2019-06-08T18:13:34.308Z,74.05
2019-06-08T18:16:11.406Z,73.44
2019-06-08T18:18:50.686Z,73.10
2019-06-08T18:21:29.286Z,72.92
2019-06-08T18:24:07.781Z,72.46
2019-06-08T18:26:47.398Z,72.29
2019-06-08T18:29:27.538Z,72.56
2019-06-08T18:32:04.363Z,72.99
2019-06-08T18:34:43.373Z,72.76
2019-06-08T18:37:21.781Z,72.87
2019-06-08T18:39:59.977Z,73.43
2019-06-08T18:42:39.604Z,73.50
2019-06-08T18:45:18.285Z,73.28
2019-06-08T18:47:57.804Z,73.03
2019-06-08T18:50:35.912Z,73.07
2019-06-08T18:53:18.909Z,72.93
2019-06-08T18:55:57.978Z,72.75
2019-06-08T18:58:35.594Z,73.00
2019-06-08T19:01:13.641Z,73.32
2019-06-08T19:03:52.545Z,73.45
2019-06-08T19:06:29.845Z,73.52
2019-06-08T19:09:07.642Z,73.31
2019-06-08T19:11:48.431Z,73.20
2019-06-08T19:14:28.459Z,72.68
2019-06-08T19:17:04.527Z,72.59
2019-06-08T19:19:45.736Z,72.53
2019-06-08T19:22:21.761Z,72.33
2019-06-08T19:25:01.370Z,71.92
2019-06-08T19:27:45.135Z,72.13
2019-06-08T19:30:20.351Z,71.79
2019-06-08T19:32:58.829Z,71.69
2019-06-08T19:35:37.670Z,71.48
2019-06-08T19:38:17.987Z,71.06
2019-06-08T19:40:57.254Z,70.75
2019-06-08T19:43:34.443Z,70.43
2019-06-08T19:46:11.353Z,69.95
2019-06-08T19:48:54.560Z,69.67
2019-06-08T19:51:28.258Z,69.54
2019-06-08T19:54:07.599Z,69.78
2019-06-08T19:56:52.407Z,70.36
2019-06-08T19:59:27.480Z,70.71
2019-06-08T20:02:05.124Z,70.85
2019-06-08T20:04:44.781Z,70.76
2019-06-08T20:07:22.243Z,70.40
2019-06-08T20:10:00.869Z,70.31
2019-06-08T20:12:38.482Z,70.31
2019-06-08T20:15:18.378Z,70.33
2019-06-08T20:17:57.536Z,70.57
2019-06-08T20:20:38.012Z,70.96
2019-06-08T20:23:14.764Z,71.14
2019-06-08T20:25:53.884Z,71.21
2019-06-08T20:28:33.045Z,71.37
2019-06-08T20:31:10.434Z,71.19
2019-06-08T20:33:50.300Z,71.00
2019-06-08T20:36:28.850Z,71.03
2019-06-08T20:39:07.450Z,70.68
2019-06-08T20:41:48.196Z,70.44
2019-06-08T20:44:24.189Z,70.48
2019-06-08T20:47:03.084Z,70.62
2019-06-08T20:49:42.181Z,70.96
2019-06-08T20:52:20.025Z,71.43
2019-06-08T20:54:58.200Z,71.85
2019-06-08T20:57:38.319Z,71.54
2019-06-08T21:00:17.234Z,70.93
2019-06-08T21:03:01.768Z,70.56
2019-06-08T21:05:34.020Z,70.35
2019-06-08T21:08:13.336Z,70.31
2019-06-08T21:10:52.931Z,69.95
2019-06-08T21:13:30.157Z,70.04
2019-06-08T21:16:08.176Z,70.20
2019-06-08T21:18:47.353Z,70.55
2019-06-08T21:21:25.038Z,71.00
2019-06-08T21:24:03.082Z,70.71
2019-06-08T21:26:42.124Z,70.92
2019-06-08T21:29:20.406Z,70.93
2019-06-08T21:32:02.304Z,70.98
2019-06-08T21:34:38.947Z,70.94
2019-06-08T21:37:18.613Z,72.01
2019-06-08T21:40:03.176Z,72.35
2019-06-08T21:42:37.077Z,72.45
2019-06-08T21:45:14.351Z,72.22
2019-06-08T21:47:53.315Z,71.96
2019-06-08T21:50:31.807Z,71.86
2019-06-08T21:53:09.220Z,71.51
2019-06-08T21:55:46.514Z,71.34
2019-06-08T21:58:23.963Z,71.73
2019-06-08T22:01:03.210Z,71.33
2019-06-08T22:03:41.773Z,70.96
2019-06-08T22:06:19.478Z,70.83
2019-06-08T22:09:00.834Z,70.80
2019-06-08T22:11:37.711Z,71.05
2019-06-08T22:14:15.463Z,70.99
2019-06-08T22:16:54.175Z,70.92
2019-06-08T22:19:32.634Z,70.95
2019-06-08T22:22:11.402Z,70.46
2019-06-08T22:24:49.364Z,70.71
2019-06-08T22:27:27.638Z,70.93
2019-06-08T22:30:09.818Z,71.11
2019-06-08T22:32:47.373Z,70.80
2019-06-08T22:35:27.577Z,70.82
2019-06-08T22:38:05.200Z,71.12
2019-06-08T22:40:43.006Z,70.77
2019-06-08T22:43:22.005Z,70.00
2019-06-08T22:46:01.701Z,69.56
2019-06-08T22:48:39.372Z,69.64
2019-06-08T22:51:18.786Z,69.56
2019-06-08T22:53:58.928Z,69.77
2019-06-08T22:56:37.233Z,69.94
2019-06-08T22:59:17.490Z,69.86
2019-06-08T23:01:55.730Z,69.70
2019-06-08T23:04:34.571Z,69.20
2019-06-08T23:07:26.579Z,69.02
2019-06-08T23:09:55.012Z,69.32
2019-06-08T23:12:32.546Z,69.55
2019-06-08T23:15:11.523Z,69.44
2019-06-08T23:17:48.850Z,69.30
2019-06-08T23:20:27.626Z,69.47
2019-06-08T23:23:08.635Z,69.59
2019-06-08T23:25:47.915Z,69.45
2019-06-08T23:28:28.245Z,69.13
2019-06-08T23:31:19.782Z,69.10
2019-06-08T23:33:44.991Z,69.51
2019-06-08T23:36:46.047Z,69.83
2019-06-08T23:39:03.257Z,69.43
2019-06-08T23:41:40.933Z,69.47
2019-06-08T23:44:18.443Z,69.88
2019-06-08T23:46:58.583Z,70.51
2019-06-08T23:49:38.013Z,70.35
2019-06-08T23:52:17.798Z,70.15
2019-06-08T23:54:59.463Z,70.57
2019-06-08T23:57:38.031Z,70.58
